createdAt,value
2022-07-29T00:02:27.190Z,12.10
2022-07-29T00:04:54.539Z,12.10
2022-07-29T00:07:21.793Z,12.10
2022-07-29T00:09:51.562Z,12.10
2022-07-29T00:12:25.311Z,12.10
2022-07-29T00:14:56.707Z,12.10
2022-07-29T00:17:24.943Z,12.10
2022-07-29T00:19:51.871Z,12.00
2022-07-29T00:22:20.369Z,11.90
2022-07-29T00:24:49.878Z,11.90
2022-07-29T00:27:17.330Z,11.80
2022-07-29T00:29:44.233Z,11.90
2022-07-29T00:32:11.431Z,11.90
2022-07-29T00:34:57.033Z,11.80
2022-07-29T00:37:24.375Z,11.80
2022-07-29T00:39:51.429Z,11.70
2022-07-29T00:42:18.896Z,11.70
2022-07-29T00:44:46.031Z,11.60
2022-07-29T00:47:13.474Z,11.70
2022-07-29T00:49:42.001Z,11.70
2022-07-29T00:52:11.653Z,11.70
2022-07-29T00:54:44.479Z,11.70
2022-07-29T00:57:14.066Z,11.80
2022-07-29T00:59:41.292Z,11.70
2022-07-29T01:02:08.216Z,11.70
2022-07-29T01:04:36.027Z,11.70
2022-07-29T01:07:04.092Z,11.60
2022-07-29T01:09:42.831Z,11.70
2022-07-29T01:12:24.223Z,11.60
2022-07-29T01:14:53.003Z,11.60
2022-07-29T01:17:36.742Z,11.70
2022-07-29T01:20:41.375Z,11.70
2022-07-29T01:23:11.640Z,11.80
2022-07-29T01:25:58.480Z,11.80
2022-07-29T01:28:44.939Z,11.80
2022-07-29T01:31:18.367Z,11.90
2022-07-29T01:34:03.877Z,11.80
2022-07-29T01:36:44.097Z,11.80
2022-07-29T01:39:34.011Z,11.80
2022-07-29T01:42:11.282Z,11.70
2022-07-29T01:44:57.865Z,11.70
2022-07-29T01:47:32.104Z,11.60
2022-07-29T01:50:01.859Z,11.60
2022-07-29T01:52:53.799Z,11.50
2022-07-29T01:55:25.937Z,11.40
2022-07-29T01:57:52.934Z,11.40
2022-07-29T02:00:20.381Z,11.40
2022-07-29T02:02:49.420Z,11.30
2022-07-29T02:05:19.274Z,11.30
2022-07-29T02:07:48.678Z,11.20
2022-07-29T02:10:19.611Z,11.20
2022-07-29T02:12:56.765Z,11.10
2022-07-29T02:15:26.709Z,11.10
2022-07-29T02:18:00.938Z,11.10
2022-07-29T02:20:30.008Z,11.10
2022-07-29T02:22:59.666Z,11.00
2022-07-29T02:25:37.286Z,10.90
2022-07-29T02:28:07.676Z,10.80
2022-07-29T02:30:40.471Z,10.70
2022-07-29T02:33:10.095Z,10.60
2022-07-29T02:35:38.162Z,10.60
2022-07-29T02:38:23.556Z,10.60
2022-07-29T02:40:53.097Z,10.50
2022-07-29T02:43:24.899Z,10.50
2022-07-29T02:45:55.987Z,10.40
2022-07-29T02:48:35.376Z,10.40
2022-07-29T02:51:41.136Z,10.40
2022-07-29T02:54:07.783Z,10.40
2022-07-29T02:56:36.132Z,10.40
2022-07-29T02:59:09.009Z,10.40
2022-07-29T03:01:38.841Z,10.40
2022-07-29T03:04:06.988Z,10.30
2022-07-29T03:06:38.531Z,10.30
2022-07-29T03:09:12.812Z,10.40
2022-07-29T03:11:49.376Z,10.40
2022-07-29T03:14:20.516Z,10.40
2022-07-29T03:16:49.354Z,10.40
2022-07-29T03:19:17.237Z,10.40
2022-07-29T03:21:44.692Z,10.50
2022-07-29T03:24:11.719Z,10.50
2022-07-29T03:26:38.807Z,10.50
2022-07-29T03:29:05.933Z,10.60
2022-07-29T03:31:33.998Z,10.60
2022-07-29T03:34:01.464Z,10.70
2022-07-29T03:36:28.599Z,10.70
2022-07-29T03:38:56.858Z,10.70
2022-07-29T03:41:24.786Z,10.80
2022-07-29T03:43:53.976Z,10.90
2022-07-29T03:46:24.922Z,10.90
2022-07-29T03:48:57.567Z,11.00
2022-07-29T03:51:33.487Z,11.10
2022-07-29T03:54:07.852Z,11.30
2022-07-29T03:56:41.594Z,11.40
2022-07-29T03:59:09.395Z,11.50
2022-07-29T04:01:37.308Z,11.50
2022-07-29T04:04:05.662Z,11.60
2022-07-29T04:06:43.140Z,11.70
2022-07-29T04:09:11.333Z,11.80
2022-07-29T04:12:02.265Z,11.90
2022-07-29T04:14:29.850Z,12.00
2022-07-29T04:16:56.959Z,12.10
2022-07-29T04:19:23.892Z,12.20
2022-07-29T04:21:50.980Z,12.20
2022-07-29T04:24:18.781Z,12.40
2022-07-29T04:26:49.543Z,12.50
2022-07-29T04:29:16.499Z,12.60
2022-07-29T04:31:44.776Z,12.70
2022-07-29T04:34:11.938Z,12.80
2022-07-29T04:36:39.182Z,12.90
2022-07-29T04:39:06.674Z,13.00
2022-07-29T04:41:33.867Z,13.20
2022-07-29T04:44:07.223Z,13.30
2022-07-29T04:46:35.063Z,13.50
2022-07-29T04:49:02.981Z,13.70
2022-07-29T04:51:30.052Z,13.90
2022-07-29T04:53:57.229Z,14.10
2022-07-29T04:56:24.531Z,14.30
2022-07-29T04:58:51.622Z,14.50
2022-07-29T05:01:18.933Z,14.60
2022-07-29T05:03:46.376Z,14.80
2022-07-29T05:06:13.254Z,15.00
2022-07-29T05:08:41.938Z,15.10
2022-07-29T05:11:12.074Z,15.30
2022-07-29T05:13:45.385Z,15.40
2022-07-29T05:16:14.177Z,15.70
2022-07-29T05:18:41.532Z,15.80
2022-07-29T05:21:08.545Z,15.90
2022-07-29T05:23:36.803Z,16.10
2022-07-29T05:26:03.804Z,16.20
2022-07-29T05:28:34.888Z,16.40
2022-07-29T05:31:02.202Z,16.60
2022-07-29T05:33:34.943Z,16.70
2022-07-29T05:36:08.381Z,16.80
2022-07-29T05:38:36.947Z,17.00
2022-07-29T05:41:04.966Z,17.10
2022-07-29T05:43:32.104Z,17.30
2022-07-29T05:45:59.220Z,17.40
2022-07-29T05:48:26.689Z,17.60
2022-07-29T05:50:53.940Z,17.70
2022-07-29T05:53:21.397Z,17.70
2022-07-29T05:55:49.763Z,17.80
2022-07-29T05:58:16.923Z,17.90
2022-07-29T06:00:43.966Z,18.00
2022-07-29T06:03:11.192Z,18.20
2022-07-29T06:05:38.439Z,18.30
2022-07-29T06:08:08.181Z,18.40
2022-07-29T06:10:38.585Z,18.50
2022-07-29T06:13:05.635Z,18.60
2022-07-29T06:15:32.829Z,18.80
2022-07-29T06:18:01.596Z,19.00
2022-07-29T06:20:33.122Z,19.00
2022-07-29T06:23:00.895Z,19.20
2022-07-29T06:25:30.421Z,19.40
2022-07-29T06:27:58.151Z,19.70
2022-07-29T06:30:25.275Z,19.90
2022-07-29T06:32:52.750Z,20.00
2022-07-29T06:35:40.874Z,20.40
2022-07-29T06:38:29.823Z,20.70
2022-07-29T06:41:03.702Z,20.90
2022-07-29T06:43:50.682Z,21.20
2022-07-29T06:46:20.799Z,21.60
2022-07-29T06:48:48.799Z,22.30
2022-07-29T06:51:16.314Z,22.60
2022-07-29T06:53:59.447Z,22.90
2022-07-29T06:56:38.822Z,23.30
2022-07-29T06:59:07.457Z,23.40
2022-07-29T07:01:34.809Z,24.00
2022-07-29T07:04:01.953Z,24.20
2022-07-29T07:06:28.946Z,24.60
2022-07-29T07:08:56.029Z,24.70
2022-07-29T07:11:23.089Z,25.30
2022-07-29T07:13:49.996Z,25.90
2022-07-29T07:16:17.300Z,25.90
2022-07-29T07:18:46.137Z,26.20
2022-07-29T07:21:18.732Z,26.90
2022-07-29T07:23:47.387Z,27.30
2022-07-29T07:26:15.376Z,27.30
2022-07-29T07:28:42.335Z,27.60
2022-07-29T07:31:10.488Z,27.90
2022-07-29T07:33:37.366Z,28.00
2022-07-29T07:36:04.402Z,28.10
2022-07-29T07:38:31.558Z,28.40
2022-07-29T07:40:58.579Z,28.60
2022-07-29T07:43:25.527Z,28.90
2022-07-29T07:45:52.791Z,29.60
2022-07-29T07:48:19.947Z,29.20
2022-07-29T07:50:46.981Z,28.40
2022-07-29T07:53:14.114Z,27.60
2022-07-29T07:58:30.166Z,26.60
2022-07-29T08:00:57.188Z,26.10
2022-07-29T08:03:24.082Z,25.50
2022-07-29T08:05:55.330Z,25.30
2022-07-29T08:08:22.475Z,26.20
2022-07-29T08:10:56.833Z,26.70
2022-07-29T08:13:29.128Z,27.40
2022-07-29T08:15:59.238Z,28.60
2022-07-29T08:18:28.178Z,29.70
2022-07-29T08:20:55.973Z,30.00
2022-07-29T08:23:24.071Z,30.20
2022-07-29T08:25:54.963Z,30.20
2022-07-29T08:28:25.711Z,30.40
2022-07-29T08:30:53.565Z,30.50
2022-07-29T08:33:20.459Z,30.90
2022-07-29T08:35:47.466Z,30.90
2022-07-29T08:38:14.755Z,31.30
2022-07-29T08:40:41.760Z,31.30
2022-07-29T08:43:10.059Z,31.50
2022-07-29T08:45:47.736Z,32.10
2022-07-29T08:48:16.614Z,32.80
2022-07-29T08:50:46.324Z,31.80
2022-07-29T08:53:16.220Z,30.20
2022-07-29T08:55:48.076Z,29.10
2022-07-29T08:58:15.995Z,28.30
2022-07-29T09:00:50.863Z,27.80
2022-07-29T09:03:21.181Z,27.80
2022-07-29T09:05:48.997Z,27.50
2022-07-29T09:08:17.082Z,27.10
2022-07-29T09:10:45.374Z,27.20
2022-07-29T09:13:12.712Z,26.80
2022-07-29T09:15:39.654Z,26.40
2022-07-29T09:18:07.029Z,26.00
2022-07-29T09:20:52.913Z,25.80
2022-07-29T09:23:24.068Z,25.50
2022-07-29T09:25:51.672Z,25.10
2022-07-29T09:28:19.226Z,25.00
2022-07-29T09:30:55.064Z,24.90
2022-07-29T09:33:23.165Z,25.00
2022-07-29T09:36:07.633Z,25.00
2022-07-29T09:38:36.326Z,24.90
2022-07-29T09:41:06.851Z,24.80
2022-07-29T09:43:34.910Z,25.10
2022-07-29T09:46:15.083Z,25.50
2022-07-29T09:48:42.502Z,26.10
2022-07-29T09:51:23.071Z,26.50
2022-07-29T09:53:54.029Z,27.20
2022-07-29T09:56:20.998Z,27.70
2022-07-29T09:58:47.844Z,28.60
2022-07-29T10:01:16.098Z,29.90
2022-07-29T10:03:53.564Z,31.40
2022-07-29T10:06:20.947Z,32.60
2022-07-29T10:08:47.998Z,32.60
2022-07-29T10:11:16.650Z,32.10
2022-07-29T10:13:46.325Z,32.30
2022-07-29T10:16:14.369Z,32.30
2022-07-29T10:18:45.684Z,31.10
2022-07-29T10:21:34.765Z,30.10
2022-07-29T10:24:02.118Z,29.70
2022-07-29T10:26:31.291Z,29.70
2022-07-29T10:28:58.187Z,29.70
2022-07-29T10:31:45.369Z,30.50
2022-07-29T10:34:29.125Z,29.50
2022-07-29T10:37:19.559Z,28.10
2022-07-29T10:40:27.252Z,27.30
2022-07-29T10:43:00.433Z,26.90
2022-07-29T10:45:30.207Z,26.70
2022-07-29T10:48:05.936Z,26.50
2022-07-29T10:50:57.170Z,26.30
2022-07-29T10:53:25.050Z,25.90
2022-07-29T10:55:53.674Z,25.50
2022-07-29T10:58:23.621Z,25.20
2022-07-29T11:00:53.615Z,25.10
2022-07-29T11:03:49.390Z,25.30
2022-07-29T11:06:18.191Z,25.70
2022-07-29T11:09:20.200Z,26.20
2022-07-29T11:11:51.597Z,26.90
2022-07-29T11:14:39.777Z,27.50
2022-07-29T11:17:08.798Z,27.40
2022-07-29T11:19:37.393Z,27.10
2022-07-29T11:22:10.431Z,26.90
2022-07-29T11:24:50.208Z,26.70
2022-07-29T11:27:22.007Z,26.60
2022-07-29T11:29:57.222Z,26.70
2022-07-29T11:32:37.558Z,26.90
2022-07-29T11:35:36.745Z,26.80
2022-07-29T11:38:32.030Z,26.70
2022-07-29T11:41:25.571Z,26.60
2022-07-29T11:43:59.117Z,27.00
2022-07-29T11:46:46.775Z,27.40
2022-07-29T11:49:15.304Z,27.80
2022-07-29T11:51:48.444Z,27.90
2022-07-29T11:54:27.618Z,27.70
2022-07-29T11:56:55.987Z,27.60
2022-07-29T11:59:23.408Z,27.10
2022-07-29T12:02:18.547Z,26.70
2022-07-29T12:04:58.146Z,26.40
2022-07-29T12:07:35.299Z,26.30
2022-07-29T12:10:04.281Z,26.40
2022-07-29T12:12:34.308Z,26.40
2022-07-29T12:15:18.706Z,26.30
2022-07-29T12:17:49.225Z,26.40
2022-07-29T12:20:28.783Z,26.50
2022-07-29T12:22:57.219Z,26.20
2022-07-29T12:25:33.738Z,26.00
2022-07-29T12:28:02.982Z,26.10
2022-07-29T12:30:59.559Z,26.30
2022-07-29T12:33:29.274Z,26.30
2022-07-29T12:36:09.501Z,26.20
2022-07-29T12:38:41.671Z,25.90
2022-07-29T12:41:08.996Z,25.70
2022-07-29T12:43:35.978Z,25.80
2022-07-29T12:46:15.036Z,26.00
2022-07-29T12:48:44.862Z,26.20
2022-07-29T12:51:15.398Z,26.30
2022-07-29T12:53:42.586Z,26.20
2022-07-29T12:56:40.561Z,26.30
2022-07-29T12:59:21.264Z,26.20
2022-07-29T13:01:51.192Z,26.10
2022-07-29T13:04:31.871Z,26.10
2022-07-29T13:07:06.958Z,26.10
2022-07-29T13:09:44.117Z,26.30
2022-07-29T13:12:13.374Z,26.10
2022-07-29T13:14:45.955Z,25.90
2022-07-29T13:17:14.698Z,25.60
2022-07-29T13:19:43.200Z,25.60
2022-07-29T13:22:20.636Z,25.80
2022-07-29T13:24:59.097Z,25.80
2022-07-29T13:27:28.575Z,25.70
2022-07-29T13:29:58.518Z,25.90
2022-07-29T13:32:27.813Z,26.10
2022-07-29T13:34:57.707Z,26.40
2022-07-29T13:37:25.324Z,26.40
2022-07-29T13:39:53.514Z,26.30
2022-07-29T13:42:20.785Z,26.20
2022-07-29T13:44:49.669Z,26.20
2022-07-29T13:47:17.204Z,26.10
2022-07-29T13:49:44.211Z,26.20
2022-07-29T13:52:11.267Z,26.30
2022-07-29T13:54:42.392Z,26.20
2022-07-29T13:57:11.830Z,27.00
2022-07-29T13:59:40.454Z,28.20
2022-07-29T14:02:08.309Z,29.70
2022-07-29T14:04:35.370Z,30.60
2022-07-29T14:07:03.680Z,30.70
2022-07-29T14:09:41.122Z,30.30
2022-07-29T14:12:09.380Z,30.70
2022-07-29T14:14:37.734Z,31.20
2022-07-29T14:17:07.547Z,30.90
2022-07-29T14:19:36.794Z,31.10
2022-07-29T14:22:08.737Z,31.10
2022-07-29T14:24:37.215Z,30.30
2022-07-29T14:27:05.370Z,29.40
2022-07-29T14:29:37.065Z,29.30
2022-07-29T14:32:11.156Z,29.00
2022-07-29T14:34:39.323Z,28.70
2022-07-29T14:37:07.535Z,28.40
2022-07-29T14:39:42.628Z,27.80
2022-07-29T14:42:13.034Z,27.50
2022-07-29T14:44:41.503Z,27.60
2022-07-29T14:47:08.572Z,27.40
2022-07-29T14:49:36.293Z,27.50
2022-07-29T14:52:03.978Z,27.70
2022-07-29T14:54:31.118Z,27.90
2022-07-29T14:56:58.743Z,27.60
2022-07-29T14:59:26.999Z,27.10
2022-07-29T15:01:53.980Z,26.60
2022-07-29T15:04:21.399Z,26.50
2022-07-29T15:06:48.681Z,26.40
2022-07-29T15:09:15.778Z,26.60
2022-07-29T15:11:43.200Z,27.30
2022-07-29T15:14:10.498Z,27.90
2022-07-29T15:16:39.136Z,28.20
2022-07-29T15:19:09.907Z,27.80
2022-07-29T15:21:41.631Z,26.90
2022-07-29T15:24:19.925Z,26.30
2022-07-29T15:26:47.855Z,25.80
2022-07-29T15:29:15.304Z,25.50
2022-07-29T15:31:43.213Z,25.30
2022-07-29T15:34:10.256Z,25.10
2022-07-29T15:36:53.604Z,24.90
2022-07-29T15:39:21.994Z,24.60
2022-07-29T15:41:50.231Z,24.60
2022-07-29T15:44:17.304Z,24.40
2022-07-29T15:47:03.117Z,24.30
2022-07-29T15:49:47.164Z,24.40
2022-07-29T15:52:25.930Z,24.40
2022-07-29T15:54:57.722Z,24.50
2022-07-29T15:57:25.610Z,24.50
2022-07-29T15:59:52.755Z,24.50
2022-07-29T16:02:19.966Z,24.30
2022-07-29T16:04:47.281Z,24.10
2022-07-29T16:07:14.858Z,24.00
2022-07-29T16:09:42.290Z,23.90
2022-07-29T16:12:14.788Z,23.80
2022-07-29T16:14:43.383Z,23.80
2022-07-29T16:17:14.704Z,23.60
2022-07-29T16:19:43.192Z,23.50
2022-07-29T16:22:10.717Z,23.50
2022-07-29T16:24:38.999Z,23.50
2022-07-29T16:27:06.086Z,23.40
2022-07-29T16:29:33.201Z,23.40
2022-07-29T16:32:01.899Z,23.40
2022-07-29T16:34:29.633Z,23.30
2022-07-29T16:36:56.655Z,23.30
2022-07-29T16:39:23.782Z,23.30
2022-07-29T16:41:50.817Z,23.30
2022-07-29T16:44:17.872Z,23.20
2022-07-29T16:46:45.621Z,23.20
2022-07-29T16:49:19.081Z,23.10
2022-07-29T16:51:47.888Z,23.00
2022-07-29T16:54:15.003Z,22.90
2022-07-29T16:56:42.372Z,22.90
2022-07-29T16:59:09.438Z,22.70
2022-07-29T17:01:36.426Z,22.60
2022-07-29T17:04:06.340Z,22.50
2022-07-29T17:06:39.674Z,22.40
2022-07-29T17:09:08.750Z,22.40
2022-07-29T17:11:51.824Z,22.30
2022-07-29T17:14:26.332Z,22.30
2022-07-29T17:17:01.309Z,22.20
2022-07-29T17:19:35.235Z,22.20
2022-07-29T17:22:10.576Z,22.20
2022-07-29T17:24:40.908Z,22.10
2022-07-29T17:27:09.900Z,22.00
2022-07-29T17:29:37.226Z,22.00
2022-07-29T17:32:04.520Z,21.80
2022-07-29T17:34:36.596Z,21.80
2022-07-29T17:37:04.864Z,21.60
2022-07-29T17:39:32.167Z,21.60
2022-07-29T17:41:59.614Z,21.40
2022-07-29T17:44:26.538Z,21.40
2022-07-29T17:46:53.674Z,21.20
2022-07-29T17:49:20.938Z,21.10
2022-07-29T17:51:47.931Z,21.00
2022-07-29T17:54:14.824Z,20.80
2022-07-29T17:56:41.968Z,20.70
2022-07-29T17:59:10.203Z,20.60
2022-07-29T18:01:40.098Z,20.60
2022-07-29T18:04:08.787Z,20.50
2022-07-29T18:06:35.949Z,20.40
2022-07-29T18:09:02.980Z,20.40
2022-07-29T18:11:32.472Z,20.30
2022-07-29T18:13:59.399Z,20.30
2022-07-29T18:16:29.614Z,20.20
2022-07-29T18:18:56.828Z,20.10
2022-07-29T18:21:45.883Z,20.10
2022-07-29T18:24:11.057Z,20.00
2022-07-29T18:26:38.479Z,19.90
2022-07-29T18:29:05.396Z,19.70
2022-07-29T18:31:36.551Z,19.60
2022-07-29T18:34:03.505Z,19.40
2022-07-29T18:36:30.814Z,19.40
2022-07-29T18:38:58.261Z,19.20
2022-07-29T18:41:25.192Z,19.10
2022-07-29T18:43:52.149Z,19.00
2022-07-29T18:46:19.690Z,19.00
2022-07-29T18:48:46.737Z,18.70
2022-07-29T18:51:13.595Z,18.70
2022-07-29T18:53:40.715Z,18.60
2022-07-29T18:56:07.660Z,18.50
2022-07-29T18:58:34.603Z,18.40
2022-07-29T19:01:02.314Z,18.30
2022-07-29T19:03:29.269Z,18.10
2022-07-29T19:05:56.277Z,17.90
2022-07-29T19:08:23.358Z,17.70
2022-07-29T19:10:53.344Z,17.50
2022-07-29T19:13:20.452Z,17.50
2022-07-29T19:15:47.594Z,17.50
2022-07-29T19:18:14.587Z,17.40
2022-07-29T19:20:42.093Z,17.40
2022-07-29T19:23:09.635Z,17.40
2022-07-29T19:25:37.484Z,17.40
2022-07-29T19:28:20.517Z,17.40
2022-07-29T19:30:47.482Z,17.40
2022-07-29T19:33:17.415Z,17.40
2022-07-29T19:35:51.518Z,17.30
2022-07-29T19:38:21.360Z,17.10
2022-07-29T19:40:48.944Z,16.90
2022-07-29T19:43:51.895Z,16.70
2022-07-29T19:46:03.070Z,16.50
2022-07-29T19:48:30.054Z,16.50
2022-07-29T19:50:57.031Z,16.40
2022-07-29T19:53:24.175Z,16.40
2022-07-29T19:55:51.100Z,16.50
2022-07-29T19:58:18.024Z,16.50
2022-07-29T20:00:50.564Z,16.50
2022-07-29T20:03:17.559Z,16.50
2022-07-29T20:05:48.003Z,16.40
2022-07-29T20:08:15.541Z,16.40
2022-07-29T20:10:42.632Z,16.30
2022-07-29T20:13:09.603Z,16.30
2022-07-29T20:15:36.951Z,16.30
2022-07-29T20:18:04.701Z,16.30
2022-07-29T20:20:31.680Z,16.20
2022-07-29T20:22:59.402Z,16.20
2022-07-29T20:25:26.294Z,16.20
2022-07-29T20:27:53.307Z,16.20
2022-07-29T20:30:22.209Z,16.20
2022-07-29T20:32:49.656Z,16.20
2022-07-29T20:35:16.775Z,16.10
2022-07-29T20:37:52.303Z,16.10
2022-07-29T20:40:25.144Z,16.00
2022-07-29T20:42:53.530Z,16.00
2022-07-29T20:45:20.504Z,15.90
2022-07-29T20:47:47.466Z,15.80
2022-07-29T20:50:15.004Z,15.60
2022-07-29T20:52:43.420Z,15.50
2022-07-29T20:55:10.864Z,15.40
2022-07-29T20:57:39.873Z,15.30
2022-07-29T21:00:07.993Z,15.20
2022-07-29T21:02:35.651Z,15.20
2022-07-29T21:05:02.851Z,15.20
2022-07-29T21:07:29.788Z,15.20
2022-07-29T21:09:57.025Z,15.10
2022-07-29T21:12:24.203Z,15.00
2022-07-29T21:14:51.909Z,15.10
2022-07-29T21:17:22.440Z,15.00
2022-07-29T21:19:53.627Z,15.10
2022-07-29T21:22:22.288Z,15.00
2022-07-29T21:24:49.619Z,14.90
2022-07-29T21:27:38.138Z,14.80
2022-07-29T21:30:07.631Z,14.80
2022-07-29T21:32:35.310Z,14.90
2022-07-29T21:35:02.266Z,15.10
2022-07-29T21:37:29.147Z,15.20
2022-07-29T21:39:56.350Z,15.20
2022-07-29T21:42:23.337Z,15.20
2022-07-29T21:44:51.801Z,15.20
2022-07-29T21:47:18.961Z,15.20
2022-07-29T21:49:46.506Z,15.20
2022-07-29T21:52:13.959Z,15.20
2022-07-29T21:54:42.119Z,15.10
2022-07-29T21:57:09.520Z,15.10
2022-07-29T21:59:36.523Z,15.00
2022-07-29T22:02:04.231Z,14.90
2022-07-29T22:04:31.432Z,14.80
2022-07-29T22:06:59.022Z,14.70
2022-07-29T22:09:26.435Z,14.70
2022-07-29T22:11:54.311Z,14.70
2022-07-29T22:14:21.461Z,14.80
2022-07-29T22:16:49.142Z,14.80
2022-07-29T22:19:16.123Z,14.90
2022-07-29T22:21:43.209Z,15.00
2022-07-29T22:24:10.677Z,15.20
2022-07-29T22:26:38.342Z,15.50
2022-07-29T22:29:05.984Z,15.80
2022-07-29T22:31:33.086Z,16.10
2022-07-29T22:34:00.002Z,16.30
2022-07-29T22:36:26.991Z,16.40
2022-07-29T22:38:54.106Z,16.60
2022-07-29T22:41:21.089Z,16.70
2022-07-29T22:43:47.977Z,16.80
2022-07-29T22:46:15.729Z,16.90
2022-07-29T22:48:42.865Z,17.00
2022-07-29T22:51:10.118Z,17.10
2022-07-29T22:53:37.354Z,17.20
2022-07-29T22:56:04.521Z,17.20
2022-07-29T22:58:31.483Z,17.20
2022-07-29T23:00:58.857Z,17.20
2022-07-29T23:03:25.905Z,17.10
2022-07-29T23:05:52.851Z,17.00
2022-07-29T23:08:20.339Z,16.90
2022-07-29T23:10:47.279Z,16.90
2022-07-29T23:13:14.695Z,16.80
2022-07-29T23:15:41.818Z,16.80
2022-07-29T23:18:08.943Z,16.80
2022-07-29T23:20:36.396Z,16.80
2022-07-29T23:23:03.586Z,16.80
2022-07-29T23:25:30.630Z,16.80
2022-07-29T23:27:57.766Z,16.80
2022-07-29T23:30:25.242Z,16.80
2022-07-29T23:32:52.441Z,16.90
2022-07-29T23:35:19.511Z,16.90
2022-07-29T23:37:46.814Z,16.90
2022-07-29T23:40:15.021Z,17.00
2022-07-29T23:42:42.934Z,17.00
2022-07-29T23:45:11.470Z,17.10
2022-07-29T23:47:38.582Z,17.00
2022-07-29T23:50:07.122Z,17.10
2022-07-29T23:52:34.270Z,17.10
2022-07-29T23:55:37.465Z,17.10
2022-07-29T23:57:50.216Z,17.10
